sensor_id;sensor_type;location;lat;lon;timestamp;P1;durP1;ratioP1;P2;durP2;ratioP2
76599;SDS011;65489;52.048;6.090;2024-02-23T00:02:23;0.45;;;0.20;;
76599;SDS011;65489;52.048;6.090;2024-02-23T00:04:48;1.20;;;0.13;;
76599;SDS011;65489;52.048;6.090;2024-02-23T00:07:14;0.30;;;0.17;;
76599;SDS011;65489;52.048;6.090;2024-02-23T00:09:39;0.40;;;0.20;;
76599;SDS011;65489;52.048;6.090;2024-02-23T00:12:04;0.40;;;0.20;;
76599;SDS011;65489;52.048;6.090;2024-02-23T00:14:30;0.20;;;0.10;;
76599;SDS011;65489;52.048;6.090;2024-02-23T00:16:56;0.70;;;0.20;;
76599;SDS011;65489;52.048;6.090;2024-02-23T00:19:22;0.55;;;0.15;;
76599;SDS011;65489;52.048;6.090;2024-02-23T00:21:49;0.65;;;0.20;;
76599;SDS011;65489;52.048;6.090;2024-02-23T00:24:16;0.20;;;0.10;;
76599;SDS011;65489;52.048;6.090;2024-02-23T00:26:42;0.82;;;0.20;;
76599;SDS011;65489;52.048;6.090;2024-02-23T00:29:07;0.30;;;0.20;;
76599;SDS011;65489;52.048;6.090;2024-02-23T00:31:34;0.22;;;0.20;;
76599;SDS011;65489;52.048;6.090;2024-02-23T00:34:01;0.68;;;0.20;;
76599;SDS011;65489;52.048;6.090;2024-02-23T00:36:26;0.32;;;0.13;;
76599;SDS011;65489;52.048;6.090;2024-02-23T00:38:51;0.38;;;0.10;;
76599;SDS011;65489;52.048;6.090;2024-02-23T00:41:17;1.15;;;0.20;;
76599;SDS011;65489;52.048;6.090;2024-02-23T00:43:42;0.68;;;0.20;;
76599;SDS011;65489;52.048;6.090;2024-02-23T00:46:08;0.30;;;0.13;;
76599;SDS011;65489;52.048;6.090;2024-02-23T00:48:34;0.22;;;0.17;;
76599;SDS011;65489;52.048;6.090;2024-02-23T00:51:01;0.50;;;0.20;;
76599;SDS011;65489;52.048;6.090;2024-02-23T00:53:27;0.52;;;0.10;;
76599;SDS011;65489;52.048;6.090;2024-02-23T00:55:53;0.70;;;0.13;;
76599;SDS011;65489;52.048;6.090;2024-02-23T00:58:18;0.43;;;0.20;;
76599;SDS011;65489;52.048;6.090;2024-02-23T01:00:44;0.50;;;0.10;;
76599;SDS011;65489;52.048;6.090;2024-02-23T01:03:09;0.20;;;0.10;;
76599;SDS011;65489;52.048;6.090;2024-02-23T01:05:35;0.35;;;0.15;;
76599;SDS011;65489;52.048;6.090;2024-02-23T01:08:00;0.73;;;0.13;;
76599;SDS011;65489;52.048;6.090;2024-02-23T01:10:26;0.52;;;0.20;;
76599;SDS011;65489;52.048;6.090;2024-02-23T01:12:52;1.17;;;0.22;;
76599;SDS011;65489;52.048;6.090;2024-02-23T01:15:17;0.82;;;0.10;;
76599;SDS011;65489;52.048;6.090;2024-02-23T01:17:43;0.43;;;0.20;;
76599;SDS011;65489;52.048;6.090;2024-02-23T01:20:08;0.30;;;0.20;;
76599;SDS011;65489;52.048;6.090;2024-02-23T01:22:34;0.30;;;0.10;;
76599;SDS011;65489;52.048;6.090;2024-02-23T01:25:01;0.57;;;0.20;;
76599;SDS011;65489;52.048;6.090;2024-02-23T01:27:26;0.70;;;0.28;;
76599;SDS011;65489;52.048;6.090;2024-02-23T01:29:52;0.30;;;0.20;;
76599;SDS011;65489;52.048;6.090;2024-02-23T01:32:17;0.30;;;0.10;;
76599;SDS011;65489;52.048;6.090;2024-02-23T01:34:43;0.50;;;0.20;;
76599;SDS011;65489;52.048;6.090;2024-02-23T01:37:11;0.20;;;0.10;;
76599;SDS011;65489;52.048;6.090;2024-02-23T01:42:25;1.90;;;0.20;;
76599;SDS011;65489;52.048;6.090;2024-02-23T01:44:51;0.30;;;0.10;;
76599;SDS011;65489;52.048;6.090;2024-02-23T01:47:17;0.65;;;0.20;;
76599;SDS011;65489;52.048;6.090;2024-02-23T01:49:43;0.88;;;0.20;;
76599;SDS011;65489;52.048;6.090;2024-02-23T01:52:13;0.55;;;0.13;;
76599;SDS011;65489;52.048;6.090;2024-02-23T01:54:39;0.32;;;0.20;;
76599;SDS011;65489;52.048;6.090;2024-02-23T01:57:05;0.40;;;0.20;;
76599;SDS011;65489;52.048;6.090;2024-02-23T01:59:36;0.80;;;0.20;;
76599;SDS011;65489;52.048;6.090;2024-02-23T02:02:03;0.20;;;0.10;;
76599;SDS011;65489;52.048;6.090;2024-02-23T02:04:29;0.55;;;0.10;;
76599;SDS011;65489;52.048;6.090;2024-02-23T02:06:55;0.65;;;0.20;;
76599;SDS011;65489;52.048;6.090;2024-02-23T02:09:20;0.50;;;0.10;;
76599;SDS011;65489;52.048;6.090;2024-02-23T02:11:46;1.85;;;0.20;;
76599;SDS011;65489;52.048;6.090;2024-02-23T02:14:12;0.20;;;0.10;;
76599;SDS011;65489;52.048;6.090;2024-02-23T02:16:38;0.55;;;0.20;;
76599;SDS011;65489;52.048;6.090;2024-02-23T02:19:04;0.35;;;0.10;;
76599;SDS011;65489;52.048;6.090;2024-02-23T02:21:30;0.93;;;0.20;;
76599;SDS011;65489;52.048;6.090;2024-02-23T02:23:56;0.45;;;0.20;;
76599;SDS011;65489;52.048;6.090;2024-02-23T02:26:22;0.55;;;0.13;;
76599;SDS011;65489;52.048;6.090;2024-02-23T02:28:47;0.70;;;0.30;;
76599;SDS011;65489;52.048;6.090;2024-02-23T02:31:13;0.45;;;0.20;;
76599;SDS011;65489;52.048;6.090;2024-02-23T02:33:39;1.02;;;0.30;;
76599;SDS011;65489;52.048;6.090;2024-02-23T02:36:05;0.68;;;0.17;;
76599;SDS011;65489;52.048;6.090;2024-02-23T02:38:31;0.77;;;0.30;;
76599;SDS011;65489;52.048;6.090;2024-02-23T02:41:01;0.45;;;0.20;;
76599;SDS011;65489;52.048;6.090;2024-02-23T02:43:27;0.60;;;0.20;;
76599;SDS011;65489;52.048;6.090;2024-02-23T02:45:52;0.30;;;0.20;;
76599;SDS011;65489;52.048;6.090;2024-02-23T02:48:18;0.55;;;0.32;;
76599;SDS011;65489;52.048;6.090;2024-02-23T02:50:43;0.22;;;0.10;;
76599;SDS011;65489;52.048;6.090;2024-02-23T02:53:09;0.57;;;0.20;;
76599;SDS011;65489;52.048;6.090;2024-02-23T02:55:35;0.85;;;0.28;;
76599;SDS011;65489;52.048;6.090;2024-02-23T02:58:01;0.40;;;0.20;;
76599;SDS011;65489;52.048;6.090;2024-02-23T03:00:27;0.55;;;0.20;;
76599;SDS011;65489;52.048;6.090;2024-02-23T03:02:52;0.85;;;0.10;;
76599;SDS011;65489;52.048;6.090;2024-02-23T03:05:18;0.52;;;0.22;;
76599;SDS011;65489;52.048;6.090;2024-02-23T03:07:44;0.47;;;0.20;;
76599;SDS011;65489;52.048;6.090;2024-02-23T03:10:18;0.20;;;0.10;;
76599;SDS011;65489;52.048;6.090;2024-02-23T03:12:43;1.08;;;0.20;;
76599;SDS011;65489;52.048;6.090;2024-02-23T03:15:09;0.40;;;0.20;;
76599;SDS011;65489;52.048;6.090;2024-02-23T03:17:37;0.60;;;0.20;;
76599;SDS011;65489;52.048;6.090;2024-02-23T03:20:06;0.75;;;0.22;;
76599;SDS011;65489;52.048;6.090;2024-02-23T03:22:36;0.85;;;0.20;;
76599;SDS011;65489;52.048;6.090;2024-02-23T03:25:02;0.30;;;0.20;;
76599;SDS011;65489;52.048;6.090;2024-02-23T03:27:33;0.40;;;0.20;;
76599;SDS011;65489;52.048;6.090;2024-02-23T03:30:00;0.43;;;0.28;;
76599;SDS011;65489;52.048;6.090;2024-02-23T03:32:26;0.30;;;0.15;;
76599;SDS011;65489;52.048;6.090;2024-02-23T03:34:51;0.40;;;0.20;;
76599;SDS011;65489;52.048;6.090;2024-02-23T03:37:17;0.50;;;0.20;;
76599;SDS011;65489;52.048;6.090;2024-02-23T03:39:46;0.47;;;0.25;;
76599;SDS011;65489;52.048;6.090;2024-02-23T03:42:13;0.95;;;0.20;;
76599;SDS011;65489;52.048;6.090;2024-02-23T03:44:41;1.23;;;0.20;;
76599;SDS011;65489;52.048;6.090;2024-02-23T03:47:07;0.60;;;0.20;;
76599;SDS011;65489;52.048;6.090;2024-02-23T03:49:33;0.43;;;0.13;;
76599;SDS011;65489;52.048;6.090;2024-02-23T03:51:59;0.35;;;0.20;;
76599;SDS011;65489;52.048;6.090;2024-02-23T03:54:24;0.90;;;0.20;;
76599;SDS011;65489;52.048;6.090;2024-02-23T03:56:49;0.40;;;0.20;;
76599;SDS011;65489;52.048;6.090;2024-02-23T03:59:15;1.15;;;0.30;;
76599;SDS011;65489;52.048;6.090;2024-02-23T04:01:41;1.85;;;0.38;;
76599;SDS011;65489;52.048;6.090;2024-02-23T04:04:07;1.40;;;0.40;;
76599;SDS011;65489;52.048;6.090;2024-02-23T04:06:33;0.65;;;0.20;;
76599;SDS011;65489;52.048;6.090;2024-02-23T04:08:59;0.30;;;0.20;;
76599;SDS011;65489;52.048;6.090;2024-02-23T04:11:24;0.35;;;0.20;;
76599;SDS011;65489;52.048;6.090;2024-02-23T04:13:50;0.68;;;0.30;;
76599;SDS011;65489;52.048;6.090;2024-02-23T04:16:15;0.40;;;0.22;;
76599;SDS011;65489;52.048;6.090;2024-02-23T04:18:41;0.50;;;0.20;;
76599;SDS011;65489;52.048;6.090;2024-02-23T04:21:06;1.17;;;0.30;;
76599;SDS011;65489;52.048;6.090;2024-02-23T04:23:32;0.60;;;0.20;;
76599;SDS011;65489;52.048;6.090;2024-02-23T04:25:58;1.02;;;0.30;;
76599;SDS011;65489;52.048;6.090;2024-02-23T04:28:24;0.50;;;0.20;;
76599;SDS011;65489;52.048;6.090;2024-02-23T04:30:51;0.55;;;0.20;;
76599;SDS011;65489;52.048;6.090;2024-02-23T04:33:17;1.40;;;0.30;;
76599;SDS011;65489;52.048;6.090;2024-02-23T04:35:42;0.80;;;0.30;;
76599;SDS011;65489;52.048;6.090;2024-02-23T04:38:08;1.17;;;0.20;;
76599;SDS011;65489;52.048;6.090;2024-02-23T04:40:33;0.63;;;0.30;;
76599;SDS011;65489;52.048;6.090;2024-02-23T04:42:59;1.02;;;0.20;;
76599;SDS011;65489;52.048;6.090;2024-02-23T04:45:24;0.75;;;0.20;;
76599;SDS011;65489;52.048;6.090;2024-02-23T04:47:50;0.60;;;0.20;;
76599;SDS011;65489;52.048;6.090;2024-02-23T04:50:15;0.50;;;0.20;;
76599;SDS011;65489;52.048;6.090;2024-02-23T04:52:41;0.40;;;0.20;;
76599;SDS011;65489;52.048;6.090;2024-02-23T04:55:06;0.63;;;0.20;;
76599;SDS011;65489;52.048;6.090;2024-02-23T04:57:32;1.05;;;0.22;;
76599;SDS011;65489;52.048;6.090;2024-02-23T04:59:57;0.50;;;0.30;;
76599;SDS011;65489;52.048;6.090;2024-02-23T05:02:22;0.70;;;0.20;;
76599;SDS011;65489;52.048;6.090;2024-02-23T05:04:48;0.40;;;0.20;;
76599;SDS011;65489;52.048;6.090;2024-02-23T05:07:13;0.40;;;0.20;;
76599;SDS011;65489;52.048;6.090;2024-02-23T05:09:39;0.52;;;0.20;;
76599;SDS011;65489;52.048;6.090;2024-02-23T05:12:08;0.50;;;0.30;;
76599;SDS011;65489;52.048;6.090;2024-02-23T05:14:34;0.50;;;0.30;;
76599;SDS011;65489;52.048;6.090;2024-02-23T05:16:59;0.68;;;0.20;;
76599;SDS011;65489;52.048;6.090;2024-02-23T05:19:25;0.75;;;0.20;;
76599;SDS011;65489;52.048;6.090;2024-02-23T05:21:50;1.15;;;0.30;;
76599;SDS011;65489;52.048;6.090;2024-02-23T05:24:16;0.95;;;0.20;;
76599;SDS011;65489;52.048;6.090;2024-02-23T05:26:41;0.38;;;0.20;;
76599;SDS011;65489;52.048;6.090;2024-02-23T05:29:09;0.30;;;0.20;;
76599;SDS011;65489;52.048;6.090;2024-02-23T05:31:45;0.40;;;0.20;;
76599;SDS011;65489;52.048;6.090;2024-02-23T05:34:14;1.25;;;0.20;;
76599;SDS011;65489;52.048;6.090;2024-02-23T05:36:40;0.75;;;0.17;;
76599;SDS011;65489;52.048;6.090;2024-02-23T05:39:05;1.02;;;0.30;;
76599;SDS011;65489;52.048;6.090;2024-02-23T05:41:32;0.65;;;0.17;;
76599;SDS011;65489;52.048;6.090;2024-02-23T05:43:58;0.68;;;0.30;;
76599;SDS011;65489;52.048;6.090;2024-02-23T05:46:23;0.30;;;0.10;;
76599;SDS011;65489;52.048;6.090;2024-02-23T05:48:49;1.15;;;0.30;;
76599;SDS011;65489;52.048;6.090;2024-02-23T05:51:15;1.00;;;0.20;;
76599;SDS011;65489;52.048;6.090;2024-02-23T05:53:40;0.45;;;0.20;;
76599;SDS011;65489;52.048;6.090;2024-02-23T05:56:06;0.50;;;0.20;;
76599;SDS011;65489;52.048;6.090;2024-02-23T05:58:31;0.85;;;0.28;;
76599;SDS011;65489;52.048;6.090;2024-02-23T06:00:57;0.30;;;0.15;;
76599;SDS011;65489;52.048;6.090;2024-02-23T06:03:22;0.50;;;0.20;;
76599;SDS011;65489;52.048;6.090;2024-02-23T06:05:48;0.35;;;0.20;;
76599;SDS011;65489;52.048;6.090;2024-02-23T06:08:13;0.98;;;0.30;;
76599;SDS011;65489;52.048;6.090;2024-02-23T06:10:39;0.38;;;0.20;;
76599;SDS011;65489;52.048;6.090;2024-02-23T06:13:04;1.33;;;0.30;;
76599;SDS011;65489;52.048;6.090;2024-02-23T06:15:30;1.20;;;0.40;;
76599;SDS011;65489;52.048;6.090;2024-02-23T06:17:56;0.32;;;0.20;;
76599;SDS011;65489;52.048;6.090;2024-02-23T06:20:21;0.38;;;0.20;;
76599;SDS011;65489;52.048;6.090;2024-02-23T06:22:46;0.88;;;0.30;;
76599;SDS011;65489;52.048;6.090;2024-02-23T06:25:12;0.52;;;0.20;;
76599;SDS011;65489;52.048;6.090;2024-02-23T06:27:37;0.63;;;0.20;;
76599;SDS011;65489;52.048;6.090;2024-02-23T06:30:03;0.30;;;0.20;;
76599;SDS011;65489;52.048;6.090;2024-02-23T06:32:30;0.93;;;0.28;;
76599;SDS011;65489;52.048;6.090;2024-02-23T06:34:55;0.50;;;0.17;;
76599;SDS011;65489;52.048;6.090;2024-02-23T06:37:20;0.28;;;0.20;;
76599;SDS011;65489;52.048;6.090;2024-02-23T06:39:46;0.50;;;0.20;;
76599;SDS011;65489;52.048;6.090;2024-02-23T06:42:16;0.75;;;0.30;;
76599;SDS011;65489;52.048;6.090;2024-02-23T06:44:41;0.43;;;0.20;;
76599;SDS011;65489;52.048;6.090;2024-02-23T06:47:07;0.85;;;0.20;;
76599;SDS011;65489;52.048;6.090;2024-02-23T06:49:32;0.38;;;0.20;;
76599;SDS011;65489;52.048;6.090;2024-02-23T06:51:58;0.80;;;0.20;;
76599;SDS011;65489;52.048;6.090;2024-02-23T06:54:23;0.75;;;0.20;;
76599;SDS011;65489;52.048;6.090;2024-02-23T06:56:49;0.60;;;0.30;;
76599;SDS011;65489;52.048;6.090;2024-02-23T06:59:14;0.40;;;0.20;;
76599;SDS011;65489;52.048;6.090;2024-02-23T07:01:50;0.75;;;0.20;;
76599;SDS011;65489;52.048;6.090;2024-02-23T07:04:17;0.50;;;0.10;;
76599;SDS011;65489;52.048;6.090;2024-02-23T07:06:43;0.68;;;0.30;;
76599;SDS011;65489;52.048;6.090;2024-02-23T07:09:09;0.40;;;0.20;;
76599;SDS011;65489;52.048;6.090;2024-02-23T07:11:36;0.75;;;0.20;;
76599;SDS011;65489;52.048;6.090;2024-02-23T07:14:02;0.68;;;0.30;;
76599;SDS011;65489;52.048;6.090;2024-02-23T07:16:27;0.40;;;0.20;;
76599;SDS011;65489;52.048;6.090;2024-02-23T07:18:53;0.30;;;0.20;;
76599;SDS011;65489;52.048;6.090;2024-02-23T07:21:20;0.38;;;0.20;;
76599;SDS011;65489;52.048;6.090;2024-02-23T07:23:45;0.95;;;0.30;;
76599;SDS011;65489;52.048;6.090;2024-02-23T07:26:11;0.68;;;0.20;;
76599;SDS011;65489;52.048;6.090;2024-02-23T07:28:36;0.38;;;0.10;;
76599;SDS011;65489;52.048;6.090;2024-02-23T07:31:02;0.88;;;0.20;;
76599;SDS011;65489;52.048;6.090;2024-02-23T07:33:27;0.73;;;0.38;;
76599;SDS011;65489;52.048;6.090;2024-02-23T07:35:52;0.50;;;0.30;;
76599;SDS011;65489;52.048;6.090;2024-02-23T07:38:18;0.50;;;0.30;;
76599;SDS011;65489;52.048;6.090;2024-02-23T07:40:47;0.50;;;0.20;;
76599;SDS011;65489;52.048;6.090;2024-02-23T07:43:12;0.30;;;0.20;;
76599;SDS011;65489;52.048;6.090;2024-02-23T07:45:38;1.00;;;0.30;;
76599;SDS011;65489;52.048;6.090;2024-02-23T07:48:05;0.60;;;0.25;;
76599;SDS011;65489;52.048;6.090;2024-02-23T07:50:33;0.70;;;0.20;;
76599;SDS011;65489;52.048;6.090;2024-02-23T07:52:59;0.82;;;0.20;;
76599;SDS011;65489;52.048;6.090;2024-02-23T07:55:27;0.32;;;0.25;;
76599;SDS011;65489;52.048;6.090;2024-02-23T07:57:53;0.30;;;0.20;;
76599;SDS011;65489;52.048;6.090;2024-02-23T08:00:22;0.40;;;0.30;;
76599;SDS011;65489;52.048;6.090;2024-02-23T08:02:48;0.65;;;0.20;;
76599;SDS011;65489;52.048;6.090;2024-02-23T08:05:14;0.55;;;0.30;;
76599;SDS011;65489;52.048;6.090;2024-02-23T08:07:39;0.63;;;0.20;;
76599;SDS011;65489;52.048;6.090;2024-02-23T08:10:05;0.95;;;0.22;;
76599;SDS011;65489;52.048;6.090;2024-02-23T08:12:32;0.30;;;0.20;;
76599;SDS011;65489;52.048;6.090;2024-02-23T08:14:57;1.00;;;0.30;;
76599;SDS011;65489;52.048;6.090;2024-02-23T08:17:23;0.35;;;0.13;;
76599;SDS011;65489;52.048;6.090;2024-02-23T08:19:48;0.93;;;0.40;;
76599;SDS011;65489;52.048;6.090;2024-02-23T08:22:14;0.80;;;0.30;;
76599;SDS011;65489;52.048;6.090;2024-02-23T08:24:39;0.50;;;0.25;;
76599;SDS011;65489;52.048;6.090;2024-02-23T08:27:04;0.85;;;0.28;;
76599;SDS011;65489;52.048;6.090;2024-02-23T08:29:30;0.65;;;0.22;;
76599;SDS011;65489;52.048;6.090;2024-02-23T08:31:59;1.67;;;0.20;;
76599;SDS011;65489;52.048;6.090;2024-02-23T08:34:24;0.82;;;0.20;;
76599;SDS011;65489;52.048;6.090;2024-02-23T08:36:50;0.73;;;0.20;;
76599;SDS011;65489;52.048;6.090;2024-02-23T08:39:25;0.70;;;0.30;;
76599;SDS011;65489;52.048;6.090;2024-02-23T08:41:50;1.60;;;0.40;;
76599;SDS011;65489;52.048;6.090;2024-02-23T08:44:17;2.60;;;0.57;;
76599;SDS011;65489;52.048;6.090;2024-02-23T08:46:42;3.22;;;0.80;;
76599;SDS011;65489;52.048;6.090;2024-02-23T08:49:08;3.85;;;0.43;;
76599;SDS011;65489;52.048;6.090;2024-02-23T08:51:36;1.88;;;0.47;;
76599;SDS011;65489;52.048;6.090;2024-02-23T08:54:02;0.88;;;0.30;;
76599;SDS011;65489;52.048;6.090;2024-02-23T08:56:29;2.90;;;0.30;;
76599;SDS011;65489;52.048;6.090;2024-02-23T08:58:55;0.88;;;0.28;;
76599;SDS011;65489;52.048;6.090;2024-02-23T09:01:21;2.63;;;0.50;;
76599;SDS011;65489;52.048;6.090;2024-02-23T09:03:46;2.65;;;0.60;;
76599;SDS011;65489;52.048;6.090;2024-02-23T09:06:13;3.30;;;0.75;;
76599;SDS011;65489;52.048;6.090;2024-02-23T09:08:39;4.13;;;0.85;;
76599;SDS011;65489;52.048;6.090;2024-02-23T09:11:06;2.05;;;0.40;;
76599;SDS011;65489;52.048;6.090;2024-02-23T09:13:32;2.97;;;0.60;;
76599;SDS011;65489;52.048;6.090;2024-02-23T09:15:57;2.85;;;0.40;;
76599;SDS011;65489;52.048;6.090;2024-02-23T09:18:23;2.03;;;0.50;;
76599;SDS011;65489;52.048;6.090;2024-02-23T09:20:48;0.70;;;0.30;;
76599;SDS011;65489;52.048;6.090;2024-02-23T09:23:14;3.78;;;0.93;;
76599;SDS011;65489;52.048;6.090;2024-02-23T09:25:43;2.30;;;0.50;;
76599;SDS011;65489;52.048;6.090;2024-02-23T09:28:10;1.35;;;0.43;;
76599;SDS011;65489;52.048;6.090;2024-02-23T09:30:36;1.77;;;0.50;;
76599;SDS011;65489;52.048;6.090;2024-02-23T09:33:02;4.65;;;0.82;;
76599;SDS011;65489;52.048;6.090;2024-02-23T09:35:33;1.77;;;0.50;;
76599;SDS011;65489;52.048;6.090;2024-02-23T09:37:59;3.13;;;0.60;;
76599;SDS011;65489;52.048;6.090;2024-02-23T09:40:28;2.90;;;0.50;;
76599;SDS011;65489;52.048;6.090;2024-02-23T09:42:57;3.97;;;0.65;;
76599;SDS011;65489;52.048;6.090;2024-02-23T09:45:27;3.72;;;0.90;;
76599;SDS011;65489;52.048;6.090;2024-02-23T09:47:53;2.53;;;0.85;;
76599;SDS011;65489;52.048;6.090;2024-02-23T09:50:20;3.80;;;0.88;;
76599;SDS011;65489;52.048;6.090;2024-02-23T09:52:48;2.85;;;0.70;;
76599;SDS011;65489;52.048;6.090;2024-02-23T09:55:17;3.05;;;0.60;;
76599;SDS011;65489;52.048;6.090;2024-02-23T09:57:44;2.63;;;0.63;;
76599;SDS011;65489;52.048;6.090;2024-02-23T10:00:10;2.17;;;0.63;;
76599;SDS011;65489;52.048;6.090;2024-02-23T10:02:39;2.13;;;0.60;;
76599;SDS011;65489;52.048;6.090;2024-02-23T10:05:05;2.60;;;0.60;;
76599;SDS011;65489;52.048;6.090;2024-02-23T10:07:34;2.58;;;0.60;;
76599;SDS011;65489;52.048;6.090;2024-02-23T10:10:00;3.40;;;0.57;;
76599;SDS011;65489;52.048;6.090;2024-02-23T10:12:26;3.53;;;0.70;;
76599;SDS011;65489;52.048;6.090;2024-02-23T10:14:58;2.83;;;0.60;;
76599;SDS011;65489;52.048;6.090;2024-02-23T10:17:23;3.15;;;0.60;;
76599;SDS011;65489;52.048;6.090;2024-02-23T10:19:49;2.47;;;0.60;;
76599;SDS011;65489;52.048;6.090;2024-02-23T10:22:14;2.42;;;0.60;;
76599;SDS011;65489;52.048;6.090;2024-02-23T10:24:41;6.05;;;0.57;;
76599;SDS011;65489;52.048;6.090;2024-02-23T10:27:10;2.63;;;0.75;;
76599;SDS011;65489;52.048;6.090;2024-02-23T10:29:36;1.75;;;0.63;;
76599;SDS011;65489;52.048;6.090;2024-02-23T10:32:01;3.22;;;0.77;;
76599;SDS011;65489;52.048;6.090;2024-02-23T10:34:28;3.47;;;0.70;;
76599;SDS011;65489;52.048;6.090;2024-02-23T10:37:00;2.53;;;0.80;;
76599;SDS011;65489;52.048;6.090;2024-02-23T10:39:27;3.83;;;0.90;;
76599;SDS011;65489;52.048;6.090;2024-02-23T10:41:57;3.80;;;0.85;;
76599;SDS011;65489;52.048;6.090;2024-02-23T10:44:28;2.50;;;0.88;;
76599;SDS011;65489;52.048;6.090;2024-02-23T10:46:54;4.00;;;0.80;;
76599;SDS011;65489;52.048;6.090;2024-02-23T10:49:21;2.65;;;0.80;;
76599;SDS011;65489;52.048;6.090;2024-02-23T10:51:51;3.38;;;0.75;;
76599;SDS011;65489;52.048;6.090;2024-02-23T10:54:17;3.25;;;0.75;;
76599;SDS011;65489;52.048;6.090;2024-02-23T10:56:54;3.85;;;0.68;;
76599;SDS011;65489;52.048;6.090;2024-02-23T10:59:23;6.25;;;0.90;;
76599;SDS011;65489;52.048;6.090;2024-02-23T11:01:49;2.57;;;0.60;;
76599;SDS011;65489;52.048;6.090;2024-02-23T11:04:16;3.17;;;0.70;;
76599;SDS011;65489;52.048;6.090;2024-02-23T11:06:42;8.77;;;0.93;;
76599;SDS011;65489;52.048;6.090;2024-02-23T11:09:08;2.97;;;0.60;;
76599;SDS011;65489;52.048;6.090;2024-02-23T11:11:38;3.47;;;0.73;;
76599;SDS011;65489;52.048;6.090;2024-02-23T11:14:07;2.17;;;0.82;;
76599;SDS011;65489;52.048;6.090;2024-02-23T11:16:38;2.22;;;0.70;;
76599;SDS011;65489;52.048;6.090;2024-02-23T11:19:06;2.88;;;0.90;;
76599;SDS011;65489;52.048;6.090;2024-02-23T11:21:42;2.28;;;0.40;;
76599;SDS011;65489;52.048;6.090;2024-02-23T11:24:07;1.13;;;0.60;;
76599;SDS011;65489;52.048;6.090;2024-02-23T11:26:32;3.55;;;0.45;;
76599;SDS011;65489;52.048;6.090;2024-02-23T11:29:09;2.08;;;0.70;;
76599;SDS011;65489;52.048;6.090;2024-02-23T11:31:57;3.00;;;0.50;;
76599;SDS011;65489;52.048;6.090;2024-02-23T11:34:29;2.58;;;0.50;;
76599;SDS011;65489;52.048;6.090;2024-02-23T11:36:55;0.70;;;0.30;;
76599;SDS011;65489;52.048;6.090;2024-02-23T11:39:25;2.08;;;0.50;;
76599;SDS011;65489;52.048;6.090;2024-02-23T11:41:51;1.50;;;0.40;;
76599;SDS011;65489;52.048;6.090;2024-02-23T11:44:17;2.35;;;0.50;;
76599;SDS011;65489;52.048;6.090;2024-02-23T11:46:51;1.33;;;0.32;;
76599;SDS011;65489;52.048;6.090;2024-02-23T11:49:17;1.77;;;0.50;;
76599;SDS011;65489;52.048;6.090;2024-02-23T11:51:42;2.03;;;0.60;;
76599;SDS011;65489;52.048;6.090;2024-02-23T11:54:07;2.75;;;0.52;;
76599;SDS011;65489;52.048;6.090;2024-02-23T11:56:33;1.90;;;0.60;;
76599;SDS011;65489;52.048;6.090;2024-02-23T11:58:59;2.05;;;0.50;;
76599;SDS011;65489;52.048;6.090;2024-02-23T12:01:24;0.90;;;0.45;;
76599;SDS011;65489;52.048;6.090;2024-02-23T12:03:50;1.75;;;0.60;;
76599;SDS011;65489;52.048;6.090;2024-02-23T12:06:15;0.65;;;0.35;;
76599;SDS011;65489;52.048;6.090;2024-02-23T12:08:42;1.48;;;0.50;;
76599;SDS011;65489;52.048;6.090;2024-02-23T12:11:08;0.52;;;0.28;;
76599;SDS011;65489;52.048;6.090;2024-02-23T12:13:37;2.70;;;0.70;;
76599;SDS011;65489;52.048;6.090;2024-02-23T12:16:03;1.67;;;0.43;;
76599;SDS011;65489;52.048;6.090;2024-02-23T12:18:34;1.65;;;0.40;;
76599;SDS011;65489;52.048;6.090;2024-02-23T12:23:38;1.10;;;0.30;;
76599;SDS011;65489;52.048;6.090;2024-02-23T12:26:09;1.70;;;0.40;;
76599;SDS011;65489;52.048;6.090;2024-02-23T12:28:35;1.35;;;0.40;;
76599;SDS011;65489;52.048;6.090;2024-02-23T12:31:04;1.33;;;0.38;;
76599;SDS011;65489;52.048;6.090;2024-02-23T12:33:39;1.08;;;0.32;;
76599;SDS011;65489;52.048;6.090;2024-02-23T12:36:05;1.98;;;0.50;;
76599;SDS011;65489;52.048;6.090;2024-02-23T12:38:32;0.75;;;0.30;;
76599;SDS011;65489;52.048;6.090;2024-02-23T12:40:58;1.10;;;0.60;;
76599;SDS011;65489;52.048;6.090;2024-02-23T12:43:24;1.63;;;0.45;;
76599;SDS011;65489;52.048;6.090;2024-02-23T12:45:51;0.85;;;0.40;;
76599;SDS011;65489;52.048;6.090;2024-02-23T12:48:17;2.20;;;0.30;;
76599;SDS011;65489;52.048;6.090;2024-02-23T12:50:43;1.02;;;0.32;;
76599;SDS011;65489;52.048;6.090;2024-02-23T12:53:30;1.00;;;0.38;;
76599;SDS011;65489;52.048;6.090;2024-02-23T12:55:57;1.27;;;0.32;;
76599;SDS011;65489;52.048;6.090;2024-02-23T12:58:23;0.60;;;0.32;;
76599;SDS011;65489;52.048;6.090;2024-02-23T13:00:48;1.00;;;0.50;;
76599;SDS011;65489;52.048;6.090;2024-02-23T13:03:13;1.27;;;0.38;;
76599;SDS011;65489;52.048;6.090;2024-02-23T13:05:39;1.23;;;0.40;;
76599;SDS011;65489;52.048;6.090;2024-02-23T13:08:04;0.55;;;0.30;;
76599;SDS011;65489;52.048;6.090;2024-02-23T13:10:30;1.42;;;0.32;;
76599;SDS011;65489;52.048;6.090;2024-02-23T13:13:07;1.48;;;0.35;;
76599;SDS011;65489;52.048;6.090;2024-02-23T13:15:32;1.45;;;0.55;;
76599;SDS011;65489;52.048;6.090;2024-02-23T13:17:57;0.88;;;0.30;;
76599;SDS011;65489;52.048;6.090;2024-02-23T13:20:23;1.13;;;0.35;;
76599;SDS011;65489;52.048;6.090;2024-02-23T13:22:49;1.80;;;0.40;;
76599;SDS011;65489;52.048;6.090;2024-02-23T13:25:15;1.60;;;0.40;;
76599;SDS011;65489;52.048;6.090;2024-02-23T13:27:45;0.68;;;0.30;;
76599;SDS011;65489;52.048;6.090;2024-02-23T13:30:10;0.95;;;0.40;;
76599;SDS011;65489;52.048;6.090;2024-02-23T13:32:37;0.50;;;0.30;;
76599;SDS011;65489;52.048;6.090;2024-02-23T13:35:02;1.73;;;0.40;;
76599;SDS011;65489;52.048;6.090;2024-02-23T13:37:29;0.40;;;0.20;;
76599;SDS011;65489;52.048;6.090;2024-02-23T13:39:55;0.85;;;0.32;;
76599;SDS011;65489;52.048;6.090;2024-02-23T13:42:20;2.35;;;0.38;;
76599;SDS011;65489;52.048;6.090;2024-02-23T13:44:48;0.80;;;0.30;;
76599;SDS011;65489;52.048;6.090;2024-02-23T13:47:14;0.45;;;0.30;;
76599;SDS011;65489;52.048;6.090;2024-02-23T13:49:39;0.73;;;0.30;;
76599;SDS011;65489;52.048;6.090;2024-02-23T13:52:05;1.00;;;0.30;;
76599;SDS011;65489;52.048;6.090;2024-02-23T13:54:30;0.80;;;0.38;;
76599;SDS011;65489;52.048;6.090;2024-02-23T13:56:56;0.75;;;0.30;;
76599;SDS011;65489;52.048;6.090;2024-02-23T13:59:21;0.60;;;0.30;;
76599;SDS011;65489;52.048;6.090;2024-02-23T14:01:47;0.70;;;0.30;;
76599;SDS011;65489;52.048;6.090;2024-02-23T14:04:12;0.65;;;0.40;;
76599;SDS011;65489;52.048;6.090;2024-02-23T14:06:37;0.63;;;0.30;;
76599;SDS011;65489;52.048;6.090;2024-02-23T14:09:03;1.58;;;0.40;;
76599;SDS011;65489;52.048;6.090;2024-02-23T14:11:29;0.65;;;0.30;;
76599;SDS011;65489;52.048;6.090;2024-02-23T14:13:55;0.52;;;0.30;;
76599;SDS011;65489;52.048;6.090;2024-02-23T14:16:21;1.45;;;0.20;;
76599;SDS011;65489;52.048;6.090;2024-02-23T14:18:51;0.57;;;0.22;;
76599;SDS011;65489;52.048;6.090;2024-02-23T14:21:16;1.85;;;0.40;;
76599;SDS011;65489;52.048;6.090;2024-02-23T14:23:43;1.75;;;0.35;;
76599;SDS011;65489;52.048;6.090;2024-02-23T14:26:09;1.20;;;0.30;;
76599;SDS011;65489;52.048;6.090;2024-02-23T14:28:38;0.75;;;0.40;;
76599;SDS011;65489;52.048;6.090;2024-02-23T14:31:04;0.82;;;0.30;;
76599;SDS011;65489;52.048;6.090;2024-02-23T14:33:29;0.95;;;0.30;;
76599;SDS011;65489;52.048;6.090;2024-02-23T14:35:55;0.55;;;0.30;;
76599;SDS011;65489;52.048;6.090;2024-02-23T14:38:20;0.77;;;0.38;;
76599;SDS011;65489;52.048;6.090;2024-02-23T14:40:47;1.27;;;0.30;;
76599;SDS011;65489;52.048;6.090;2024-02-23T14:43:13;0.90;;;0.32;;
76599;SDS011;65489;52.048;6.090;2024-02-23T14:45:38;0.80;;;0.30;;
76599;SDS011;65489;52.048;6.090;2024-02-23T14:48:04;0.70;;;0.30;;
76599;SDS011;65489;52.048;6.090;2024-02-23T14:50:29;1.20;;;0.20;;